sensor_id;sensor_type;location;lat;lon;timestamp;pressure;altitude;pressure_sealevel;temperature;humidity
20350;BME280;10332;50.208;18.988;2023-06-26T00:02:20;98105.91;;;20.63;64.54
20350;BME280;10332;50.208;18.988;2023-06-26T00:04:47;98104.25;;;20.62;64.77
20350;BME280;10332;50.208;18.988;2023-06-26T00:07:15;98100.94;;;20.60;64.89
20350;BME280;10332;50.208;18.988;2023-06-26T00:09:43;98106.25;;;20.60;64.70
20350;BME280;10332;50.208;18.988;2023-06-26T00:12:10;98101.13;;;20.59;64.89
20350;BME280;10332;50.208;18.988;2023-06-26T00:14:38;98094.97;;;20.58;64.38
20350;BME280;10332;50.208;18.988;2023-06-26T00:17:05;98092.31;;;20.58;64.47
20350;BME280;10332;50.208;18.988;2023-06-26T00:19:32;98096.94;;;20.56;64.62
20350;BME280;10332;50.208;18.988;2023-06-26T00:22:00;98097.94;;;20.55;64.42
20350;BME280;10332;50.208;18.988;2023-06-26T00:24:27;98102.44;;;20.55;64.80
20350;BME280;10332;50.208;18.988;2023-06-26T00:26:55;98097.28;;;20.53;64.92
20350;BME280;10332;50.208;18.988;2023-06-26T00:29:22;98102.78;;;20.52;64.66
20350;BME280;10332;50.208;18.988;2023-06-26T00:31:50;98094.00;;;20.51;64.59
20350;BME280;10332;50.208;18.988;2023-06-26T00:34:17;98103.94;;;20.49;64.61
20350;BME280;10332;50.208;18.988;2023-06-26T00:36:45;98101.28;;;20.49;64.63
20350;BME280;10332;50.208;18.988;2023-06-26T00:39:12;98094.81;;;20.44;64.69
20350;BME280;10332;50.208;18.988;2023-06-26T00:41:40;98096.09;;;20.39;64.97
20350;BME280;10332;50.208;18.988;2023-06-26T00:44:08;98091.31;;;20.35;65.06
20350;BME280;10332;50.208;18.988;2023-06-26T00:46:35;98096.78;;;20.33;65.41
20350;BME280;10332;50.208;18.988;2023-06-26T00:49:04;98096.13;;;20.31;65.36
20350;BME280;10332;50.208;18.988;2023-06-26T00:51:32;98102.91;;;20.26;65.65
20350;BME280;10332;50.208;18.988;2023-06-26T00:54:00;98106.03;;;20.21;65.84
20350;BME280;10332;50.208;18.988;2023-06-26T00:56:30;98093.94;;;20.19;65.46
20350;BME280;10332;50.208;18.988;2023-06-26T00:58:58;98092.28;;;20.18;65.54
20350;BME280;10332;50.208;18.988;2023-06-26T01:01:26;98095.28;;;20.15;66.05
20350;BME280;10332;50.208;18.988;2023-06-26T01:03:54;98097.25;;;20.12;65.91
20350;BME280;10332;50.208;18.988;2023-06-26T01:06:24;98086.16;;;20.09;66.03
20350;BME280;10332;50.208;18.988;2023-06-26T01:08:53;98091.63;;;20.07;66.10
20350;BME280;10332;50.208;18.988;2023-06-26T01:11:20;98091.81;;;20.06;66.27
20350;BME280;10332;50.208;18.988;2023-06-26T01:13:49;98089.31;;;20.04;66.13
20350;BME280;10332;50.208;18.988;2023-06-26T01:16:18;98082.69;;;20.00;66.80
20350;BME280;10332;50.208;18.988;2023-06-26T01:18:47;98085.00;;;19.95;66.98
20350;BME280;10332;50.208;18.988;2023-06-26T01:21:17;98079.00;;;19.93;66.82
20350;BME280;10332;50.208;18.988;2023-06-26T01:24:09;98079.81;;;19.85;67.24
20350;BME280;10332;50.208;18.988;2023-06-26T01:26:43;98083.16;;;19.88;67.18
20350;BME280;10332;50.208;18.988;2023-06-26T01:29:14;98086.81;;;19.87;67.17
20350;BME280;10332;50.208;18.988;2023-06-26T01:31:43;98091.28;;;19.86;67.81
20350;BME280;10332;50.208;18.988;2023-06-26T01:34:17;98082.00;;;19.82;67.80
20350;BME280;10332;50.208;18.988;2023-06-26T01:36:45;98081.31;;;19.80;67.77
20350;BME280;10332;50.208;18.988;2023-06-26T01:39:18;98075.50;;;19.76;67.73
20350;BME280;10332;50.208;18.988;2023-06-26T01:41:46;98077.50;;;19.74;67.89
20350;BME280;10332;50.208;18.988;2023-06-26T01:44:29;98074.66;;;19.68;68.14
20350;BME280;10332;50.208;18.988;2023-06-26T01:47:04;98067.03;;;19.65;68.75
20350;BME280;10332;50.208;18.988;2023-06-26T01:49:49;98069.38;;;19.60;68.62
20350;BME280;10332;50.208;18.988;2023-06-26T01:52:42;98067.69;;;19.59;68.48
20350;BME280;10332;50.208;18.988;2023-06-26T01:55:40;98071.63;;;19.54;68.51
20350;BME280;10332;50.208;18.988;2023-06-26T01:58:09;98067.03;;;19.56;68.86
20350;BME280;10332;50.208;18.988;2023-06-26T02:00:38;98067.34;;;19.53;69.18
20350;BME280;10332;50.208;18.988;2023-06-26T02:03:07;98065.69;;;19.52;69.33
20350;BME280;10332;50.208;18.988;2023-06-26T02:05:35;98072.28;;;19.48;69.57
20350;BME280;10332;50.208;18.988;2023-06-26T02:08:02;98068.44;;;19.35;70.88
20350;BME280;10332;50.208;18.988;2023-06-26T02:10:30;98063.31;;;19.33;70.54
20350;BME280;10332;50.208;18.988;2023-06-26T02:12:58;98057.03;;;19.34;70.33
20350;BME280;10332;50.208;18.988;2023-06-26T02:15:25;98062.78;;;19.29;70.76
20350;BME280;10332;50.208;18.988;2023-06-26T02:17:53;98057.81;;;19.26;70.53
20350;BME280;10332;50.208;18.988;2023-06-26T02:20:20;98051.53;;;19.27;70.30
20350;BME280;10332;50.208;18.988;2023-06-26T02:22:48;98055.16;;;19.26;70.56
20350;BME280;10332;50.208;18.988;2023-06-26T02:25:17;98059.31;;;19.29;70.57
20350;BME280;10332;50.208;18.988;2023-06-26T02:27:44;98057.28;;;19.23;70.42
20350;BME280;10332;50.208;18.988;2023-06-26T02:30:12;98064.41;;;19.22;70.50
20350;BME280;10332;50.208;18.988;2023-06-26T02:32:39;98060.09;;;19.21;70.72
20350;BME280;10332;50.208;18.988;2023-06-26T02:35:07;98068.22;;;19.20;70.57
20350;BME280;10332;50.208;18.988;2023-06-26T02:37:35;98066.06;;;19.15;71.24
20350;BME280;10332;50.208;18.988;2023-06-26T02:40:03;98066.34;;;19.12;71.16
20350;BME280;10332;50.208;18.988;2023-06-26T02:42:32;98063.03;;;19.10;70.96
20350;BME280;10332;50.208;18.988;2023-06-26T02:44:59;98071.66;;;19.12;70.83
20350;BME280;10332;50.208;18.988;2023-06-26T02:47:27;98065.53;;;19.12;71.08
20350;BME280;10332;50.208;18.988;2023-06-26T02:49:54;98068.34;;;19.10;71.07
20350;BME280;10332;50.208;18.988;2023-06-26T02:52:22;98070.97;;;19.10;70.79
20350;BME280;10332;50.208;18.988;2023-06-26T02:54:49;98063.19;;;19.09;71.22
20350;BME280;10332;50.208;18.988;2023-06-26T02:57:16;98068.97;;;19.04;71.51
20350;BME280;10332;50.208;18.988;2023-06-26T02:59:44;98060.19;;;19.04;71.51
20350;BME280;10332;50.208;18.988;2023-06-26T03:02:11;98064.81;;;19.02;71.75
20350;BME280;10332;50.208;18.988;2023-06-26T03:04:39;98070.59;;;18.97;72.70
20350;BME280;10332;50.208;18.988;2023-06-26T03:07:06;98062.78;;;18.87;73.05
20350;BME280;10332;50.208;18.988;2023-06-26T03:09:34;98061.25;;;18.85;72.91
20350;BME280;10332;50.208;18.988;2023-06-26T03:12:02;98064.44;;;18.88;72.72
20350;BME280;10332;50.208;18.988;2023-06-26T03:14:29;98058.31;;;18.88;72.89
20350;BME280;10332;50.208;18.988;2023-06-26T03:16:59;98061.94;;;18.87;73.24
20350;BME280;10332;50.208;18.988;2023-06-26T03:19:30;98062.91;;;18.86;72.87
20350;BME280;10332;50.208;18.988;2023-06-26T03:21:57;98062.78;;;18.87;73.10
20350;BME280;10332;50.208;18.988;2023-06-26T03:24:25;98065.44;;;18.87;73.16
20350;BME280;10332;50.208;18.988;2023-06-26T03:26:52;98063.06;;;18.84;73.70
20350;BME280;10332;50.208;18.988;2023-06-26T03:29:20;98066.25;;;18.88;73.54
20350;BME280;10332;50.208;18.988;2023-06-26T03:31:47;98061.31;;;18.93;72.97
20350;BME280;10332;50.208;18.988;2023-06-26T03:34:15;98069.91;;;18.95;73.28
20350;BME280;10332;50.208;18.988;2023-06-26T03:36:42;98060.84;;;18.97;73.24
20350;BME280;10332;50.208;18.988;2023-06-26T03:39:10;98072.25;;;18.98;73.46
20350;BME280;10332;50.208;18.988;2023-06-26T03:41:37;98068.91;;;18.96;73.41
20350;BME280;10332;50.208;18.988;2023-06-26T03:44:04;98069.44;;;18.99;73.59
20350;BME280;10332;50.208;18.988;2023-06-26T03:46:32;98067.84;;;19.07;73.70
20350;BME280;10332;50.208;18.988;2023-06-26T03:48:59;98063.19;;;19.09;73.83
20350;BME280;10332;50.208;18.988;2023-06-26T03:51:27;98061.72;;;19.06;73.99
20350;BME280;10332;50.208;18.988;2023-06-26T03:53:54;98061.56;;;19.08;73.56
20350;BME280;10332;50.208;18.988;2023-06-26T03:56:22;98069.81;;;19.13;73.38
20350;BME280;10332;50.208;18.988;2023-06-26T03:58:49;98065.88;;;19.17;73.67
20350;BME280;10332;50.208;18.988;2023-06-26T04:01:17;98069.84;;;19.21;73.45
20350;BME280;10332;50.208;18.988;2023-06-26T04:03:44;98060.94;;;19.22;73.59
20350;BME280;10332;50.208;18.988;2023-06-26T04:06:12;98064.94;;;19.26;73.38
20350;BME280;10332;50.208;18.988;2023-06-26T04:08:39;98060.47;;;19.26;73.71
20350;BME280;10332;50.208;18.988;2023-06-26T04:11:06;98067.25;;;19.29;73.27
20350;BME280;10332;50.208;18.988;2023-06-26T04:13:34;98066.94;;;19.32;73.11
20350;BME280;10332;50.208;18.988;2023-06-26T04:16:01;98076.38;;;19.35;73.21
20350;BME280;10332;50.208;18.988;2023-06-26T04:18:29;98068.28;;;19.36;73.42
20350;BME280;10332;50.208;18.988;2023-06-26T04:21:13;98065.97;;;19.33;73.60
20350;BME280;10332;50.208;18.988;2023-06-26T04:23:41;98065.78;;;19.35;73.70
20350;BME280;10332;50.208;18.988;2023-06-26T04:26:08;98065.63;;;19.36;73.74
20350;BME280;10332;50.208;18.988;2023-06-26T04:28:36;98063.63;;;19.38;73.76
20350;BME280;10332;50.208;18.988;2023-06-26T04:31:04;98065.66;;;19.44;73.98
20350;BME280;10332;50.208;18.988;2023-06-26T04:33:32;98069.63;;;19.48;73.84
20350;BME280;10332;50.208;18.988;2023-06-26T04:35:59;98065.97;;;19.41;74.82
20350;BME280;10332;50.208;18.988;2023-06-26T04:38:34;98064.63;;;19.37;75.08
20350;BME280;10332;50.208;18.988;2023-06-26T04:41:02;98071.28;;;19.41;74.81
20350;BME280;10332;50.208;18.988;2023-06-26T04:43:30;98068.28;;;19.44;74.61
20350;BME280;10332;50.208;18.988;2023-06-26T04:45:57;98062.66;;;19.47;74.37
20350;BME280;10332;50.208;18.988;2023-06-26T04:48:25;98068.31;;;19.52;74.14
20350;BME280;10332;50.208;18.988;2023-06-26T04:50:55;98071.63;;;19.54;74.85
20350;BME280;10332;50.208;18.988;2023-06-26T04:53:23;98071.63;;;19.54;74.96
20350;BME280;10332;50.208;18.988;2023-06-26T04:55:52;98067.56;;;19.60;74.96
20350;BME280;10332;50.208;18.988;2023-06-26T04:58:20;98074.00;;;19.66;74.47
20350;BME280;10332;50.208;18.988;2023-06-26T05:00:47;98075.34;;;19.70;74.41
20350;BME280;10332;50.208;18.988;2023-06-26T05:03:17;98071.38;;;19.74;74.84
20350;BME280;10332;50.208;18.988;2023-06-26T05:05:45;98073.84;;;19.75;74.50
20350;BME280;10332;50.208;18.988;2023-06-26T05:08:21;98079.31;;;19.74;74.93
20350;BME280;10332;50.208;18.988;2023-06-26T05:10:49;98080.66;;;19.78;74.53
20350;BME280;10332;50.208;18.988;2023-06-26T05:13:17;98081.81;;;19.83;74.82
20350;BME280;10332;50.208;18.988;2023-06-26T05:15:46;98079.00;;;19.85;74.71
20350;BME280;10332;50.208;18.988;2023-06-26T05:18:14;98082.00;;;19.90;74.52
20350;BME280;10332;50.208;18.988;2023-06-26T05:20:42;98078.84;;;19.95;74.42
20350;BME280;10332;50.208;18.988;2023-06-26T05:23:12;98079.00;;;19.93;74.47
20350;BME280;10332;50.208;18.988;2023-06-26T05:25:40;98074.72;;;19.92;74.24
20350;BME280;10332;50.208;18.988;2023-06-26T05:28:09;98067.75;;;19.91;74.42
20350;BME280;10332;50.208;18.988;2023-06-26T05:30:38;98071.41;;;19.90;74.38
20350;BME280;10332;50.208;18.988;2023-06-26T05:33:08;98078.72;;;20.04;73.81
20350;BME280;10332;50.208;18.988;2023-06-26T05:35:37;98078.84;;;20.03;74.23
20350;BME280;10332;50.208;18.988;2023-06-26T05:38:06;98077.03;;;20.03;73.94
20350;BME280;10332;50.208;18.988;2023-06-26T05:40:34;98073.25;;;20.06;74.04
20350;BME280;10332;50.208;18.988;2023-06-26T05:43:03;98071.91;;;20.02;74.04
20350;BME280;10332;50.208;18.988;2023-06-26T05:45:30;98073.25;;;20.06;73.71
20350;BME280;10332;50.208;18.988;2023-06-26T05:47:58;98067.94;;;20.14;73.58
20350;BME280;10332;50.208;18.988;2023-06-26T05:50:27;98071.75;;;20.20;73.60
20350;BME280;10332;50.208;18.988;2023-06-26T05:52:55;98066.28;;;20.29;73.18
20350;BME280;10332;50.208;18.988;2023-06-26T05:55:23;98073.41;;;20.37;72.95
20350;BME280;10332;50.208;18.988;2023-06-26T05:57:52;98073.09;;;20.40;73.59
20350;BME280;10332;50.208;18.988;2023-06-26T06:00:21;98072.59;;;20.45;73.29
20350;BME280;10332;50.208;18.988;2023-06-26T06:02:49;98071.25;;;20.40;74.16
20350;BME280;10332;50.208;18.988;2023-06-26T06:05:16;98066.81;;;20.49;73.56
20350;BME280;10332;50.208;18.988;2023-06-26T06:07:44;98068.94;;;20.54;73.60
20350;BME280;10332;50.208;18.988;2023-06-26T06:10:11;98060.50;;;20.58;73.33
20350;BME280;10332;50.208;18.988;2023-06-26T06:12:39;98068.09;;;20.69;72.50
20350;BME280;10332;50.208;18.988;2023-06-26T06:15:07;98066.06;;;20.80;72.58
20350;BME280;10332;50.208;18.988;2023-06-26T06:17:35;98059.91;;;20.87;72.42
20350;BME280;10332;50.208;18.988;2023-06-26T06:20:03;98067.00;;;21.03;71.45
20350;BME280;10332;50.208;18.988;2023-06-26T06:22:32;98069.59;;;21.11;71.24
20350;BME280;10332;50.208;18.988;2023-06-26T06:24:59;98069.56;;;21.19;70.94
20350;BME280;10332;50.208;18.988;2023-06-26T06:27:28;98064.09;;;21.29;70.96
20350;BME280;10332;50.208;18.988;2023-06-26T06:29:55;98065.59;;;21.32;70.92
20350;BME280;10332;50.208;18.988;2023-06-26T06:32:23;98067.25;;;21.33;71.65
20350;BME280;10332;50.208;18.988;2023-06-26T06:34:50;98064.84;;;21.46;71.35
20350;BME280;10332;50.208;18.988;2023-06-26T06:37:18;98063.56;;;21.65;70.85
20350;BME280;10332;50.208;18.988;2023-06-26T06:39:45;98065.25;;;21.66;70.94
20350;BME280;10332;50.208;18.988;2023-06-26T06:42:13;98067.72;;;21.67;70.85
20350;BME280;10332;50.208;18.988;2023-06-26T06:44:40;98069.44;;;21.60;70.78
20350;BME280;10332;50.208;18.988;2023-06-26T06:47:08;98063.28;;;21.82;70.47
20350;BME280;10332;50.208;18.988;2023-06-26T06:49:35;98072.47;;;22.03;69.23
20350;BME280;10332;50.208;18.988;2023-06-26T06:52:03;98073.94;;;22.05;69.63
20350;BME280;10332;50.208;18.988;2023-06-26T06:54:30;98072.72;;;22.16;68.62
20350;BME280;10332;50.208;18.988;2023-06-26T06:56:58;98074.38;;;22.17;68.34
20350;BME280;10332;50.208;18.988;2023-06-26T06:59:25;98071.66;;;22.25;68.31
20350;BME280;10332;50.208;18.988;2023-06-26T07:01:53;98074.25;;;22.33;68.01
20350;BME280;10332;50.208;18.988;2023-06-26T07:04:20;98076.38;;;22.38;67.40
20350;BME280;10332;50.208;18.988;2023-06-26T07:06:48;98069.25;;;22.53;66.80
20350;BME280;10332;50.208;18.988;2023-06-26T07:09:15;98073.84;;;22.59;66.78
20350;BME280;10332;50.208;18.988;2023-06-26T07:11:43;98069.47;;;22.66;66.47
20350;BME280;10332;50.208;18.988;2023-06-26T07:14:10;98072.63;;;22.85;65.50
20350;BME280;10332;50.208;18.988;2023-06-26T07:16:38;98076.22;;;22.92;65.19
20350;BME280;10332;50.208;18.988;2023-06-26T07:19:05;98079.97;;;22.98;65.69
20350;BME280;10332;50.208;18.988;2023-06-26T07:21:33;98063.72;;;23.07;65.11
20350;BME280;10332;50.208;18.988;2023-06-26T07:24:00;98070.69;;;23.23;64.43
20350;BME280;10332;50.208;18.988;2023-06-26T07:26:28;98063.84;;;23.35;63.88
20350;BME280;10332;50.208;18.988;2023-06-26T07:29:11;98062.31;;;23.41;63.01
20350;BME280;10332;50.208;18.988;2023-06-26T07:31:39;98068.44;;;23.41;63.73
20350;BME280;10332;50.208;18.988;2023-06-26T07:34:06;98064.94;;;23.56;63.03
20350;BME280;10332;50.208;18.988;2023-06-26T07:36:33;98065.50;;;23.66;63.16
20350;BME280;10332;50.208;18.988;2023-06-26T07:39:01;98055.84;;;23.50;63.42
20350;BME280;10332;50.208;18.988;2023-06-26T07:41:28;98069.22;;;23.71;63.17
20350;BME280;10332;50.208;18.988;2023-06-26T07:43:58;98075.75;;;23.84;63.93
20350;BME280;10332;50.208;18.988;2023-06-26T07:46:26;98065.66;;;24.00;62.99
20350;BME280;10332;50.208;18.988;2023-06-26T07:48:54;98069.88;;;24.16;62.01
20350;BME280;10332;50.208;18.988;2023-06-26T07:51:22;98070.56;;;24.25;61.70
20350;BME280;10332;50.208;18.988;2023-06-26T07:53:49;98071.75;;;24.37;60.78
20350;BME280;10332;50.208;18.988;2023-06-26T07:56:17;98075.53;;;24.49;58.50
20350;BME280;10332;50.208;18.988;2023-06-26T07:58:44;98075.81;;;24.54;57.89
20350;BME280;10332;50.208;18.988;2023-06-26T08:01:12;98075.00;;;24.60;57.14
20350;BME280;10332;50.208;18.988;2023-06-26T08:03:39;98070.78;;;24.73;57.80
20350;BME280;10332;50.208;18.988;2023-06-26T08:06:08;98068.16;;;24.79;57.67
20350;BME280;10332;50.208;18.988;2023-06-26T08:08:38;98065.78;;;24.98;56.94
20350;BME280;10332;50.208;18.988;2023-06-26T08:11:06;98074.19;;;25.23;56.91
20350;BME280;10332;50.208;18.988;2023-06-26T08:13:33;98058.47;;;25.06;55.16
20350;BME280;10332;50.208;18.988;2023-06-26T08:16:01;98060.28;;;25.40;54.85
20350;BME280;10332;50.208;18.988;2023-06-26T08:18:28;98064.06;;;25.53;54.44
20350;BME280;10332;50.208;18.988;2023-06-26T08:20:56;98062.09;;;25.74;52.68
20350;BME280;10332;50.208;18.988;2023-06-26T08:23:23;98067.00;;;25.78;52.15
20350;BME280;10332;50.208;18.988;2023-06-26T08:25:53;98066.00;;;25.85;53.07
20350;BME280;10332;50.208;18.988;2023-06-26T08:28:20;98063.34;;;25.85;53.10
20350;BME280;10332;50.208;18.988;2023-06-26T08:30:48;98067.28;;;26.22;51.13
20350;BME280;10332;50.208;18.988;2023-06-26T08:33:15;98062.19;;;26.61;49.74
20350;BME280;10332;50.208;18.988;2023-06-26T08:35:43;98060.91;;;26.96;48.38
20350;BME280;10332;50.208;18.988;2023-06-26T08:38:10;98060.91;;;26.90;47.37
20350;BME280;10332;50.208;18.988;2023-06-26T08:40:38;98063.75;;;27.01;48.23
20350;BME280;10332;50.208;18.988;2023-06-26T08:43:06;98056.78;;;27.07;48.04
20350;BME280;10332;50.208;18.988;2023-06-26T08:45:33;98061.72;;;27.10;48.16
20350;BME280;10332;50.208;18.988;2023-06-26T08:48:02;98064.59;;;27.02;45.68
20350;BME280;10332;50.208;18.988;2023-06-26T08:50:35;98055.50;;;27.16;45.62
20350;BME280;10332;50.208;18.988;2023-06-26T08:56:27;98064.00;;;27.06;47.34
20350;BME280;10332;50.208;18.988;2023-06-26T08:59:09;98056.13;;;27.18;47.42
20350;BME280;10332;50.208;18.988;2023-06-26T09:01:42;98056.69;;;27.27;47.93
20350;BME280;10332;50.208;18.988;2023-06-26T09:04:10;98060.78;;;27.36;47.84
20350;BME280;10332;50.208;18.988;2023-06-26T09:06:46;98060.47;;;27.64;47.91
20350;BME280;10332;50.208;18.988;2023-06-26T09:09:17;98057.47;;;28.17;47.02
20350;BME280;10332;50.208;18.988;2023-06-26T09:11:45;98055.97;;;28.52;46.85
20350;BME280;10332;50.208;18.988;2023-06-26T09:14:13;98061.97;;;28.73;46.09
20350;BME280;10332;50.208;18.988;2023-06-26T09:16:42;98055.03;;;29.08;43.86
20350;BME280;10332;50.208;18.988;2023-06-26T09:19:11;98060.09;;;29.35;44.01
20350;BME280;10332;50.208;18.988;2023-06-26T09:21:41;98057.09;;;29.43;43.12
20350;BME280;10332;50.208;18.988;2023-06-26T09:24:10;98055.91;;;29.76;41.51
20350;BME280;10332;50.208;18.988;2023-06-26T09:26:40;98052.03;;;29.83;40.87
20350;BME280;10332;50.208;18.988;2023-06-26T09:29:08;98047.66;;;29.71;39.44
20350;BME280;10332;50.208;18.988;2023-06-26T09:31:38;98042.84;;;29.43;40.38
20350;BME280;10332;50.208;18.988;2023-06-26T09:34:09;98050.66;;;29.92;40.31
20350;BME280;10332;50.208;18.988;2023-06-26T09:36:38;98054.84;;;29.77;40.49
20350;BME280;10332;50.208;18.988;2023-06-26T09:39:08;98049.06;;;29.25;40.58
20350;BME280;10332;50.208;18.988;2023-06-26T09:41:43;98050.44;;;29.46;40.09
20350;BME280;10332;50.208;18.988;2023-06-26T09:44:14;98044.84;;;29.29;40.99
20350;BME280;10332;50.208;18.988;2023-06-26T09:46:45;98043.22;;;29.28;40.86
20350;BME280;10332;50.208;18.988;2023-06-26T09:49:13;98039.94;;;29.26;41.33
20350;BME280;10332;50.208;18.988;2023-06-26T09:51:42;98047.94;;;29.32;41.84
20350;BME280;10332;50.208;18.988;2023-06-26T09:54:10;98047.97;;;29.62;41.18
20350;BME280;10332;50.208;18.988;2023-06-26T09:56:38;98042.00;;;29.90;42.39
20350;BME280;10332;50.208;18.988;2023-06-26T09:59:06;98032.28;;;30.01;43.21
20350;BME280;10332;50.208;18.988;2023-06-26T10:01:41;98035.66;;;30.15;42.09
20350;BME280;10332;50.208;18.988;2023-06-26T10:04:09;98032.63;;;30.23;40.07
20350;BME280;10332;50.208;18.988;2023-06-26T10:06:51;98038.97;;;30.29;40.13
20350;BME280;10332;50.208;18.988;2023-06-26T10:09:20;98030.31;;;30.50;40.34
20350;BME280;10332;50.208;18.988;2023-06-26T10:14:35;98023.13;;;30.20;37.27
20350;BME280;10332;50.208;18.988;2023-06-26T10:17:10;98027.28;;;29.93;38.95
20350;BME280;10332;50.208;18.988;2023-06-26T10:19:42;98025.97;;;29.95;38.14
20350;BME280;10332;50.208;18.988;2023-06-26T10:22:17;98025.34;;;29.82;37.42
20350;BME280;10332;50.208;18.988;2023-06-26T10:24:49;98020.91;;;29.76;37.78
20350;BME280;10332;50.208;18.988;2023-06-26T10:27:20;98022.97;;;29.74;37.26
20350;BME280;10332;50.208;18.988;2023-06-26T10:30:02;98010.66;;;29.18;36.96
20350;BME280;10332;50.208;18.988;2023-06-26T10:32:31;98005.13;;;29.31;37.06
20350;BME280;10332;50.208;18.988;2023-06-26T10:35:00;98004.19;;;29.37;37.50
20350;BME280;10332;50.208;18.988;2023-06-26T10:37:46;98003.06;;;29.45;37.39
20350;BME280;10332;50.208;18.988;2023-06-26T10:40:23;97996.72;;;29.57;37.93
20350;BME280;10332;50.208;18.988;2023-06-26T10:43:09;97993.34;;;29.44;36.50
20350;BME280;10332;50.208;18.988;2023-06-26T10:45:37;97993.09;;;29.63;35.38
20350;BME280;10332;50.208;18.988;2023-06-26T10:48:09;97999.31;;;29.64;35.61
20350;BME280;10332;50.208;18.988;2023-06-26T10:50:37;97991.44;;;29.51;37.40
20350;BME280;10332;50.208;18.988;2023-06-26T10:56:09;98007.03;;;29.60;37.32
20350;BME280;10332;50.208;18.988;2023-06-26T10:58:41;97996.28;;;29.72;37.12
20350;BME280;10332;50.208;18.988;2023-06-26T11:01:22;97996.94;;;29.56;37.12
20350;BME280;10332;50.208;18.988;2023-06-26T11:06:33;97990.19;;;29.65;38.34
20350;BME280;10332;50.208;18.988;2023-06-26T11:14:23;97985.78;;;30.24;37.67
20350;BME280;10332;50.208;18.988;2023-06-26T11:16:51;97977.59;;;30.31;36.61
20350;BME280;10332;50.208;18.988;2023-06-26T11:19:20;97986.72;;;30.41;35.80
20350;BME280;10332;50.208;18.988;2023-06-26T11:21:48;97986.22;;;30.44;35.26
20350;BME280;10332;50.208;18.988;2023-06-26T11:24:16;97978.28;;;30.38;36.08
20350;BME280;10332;50.208;18.988;2023-06-26T11:26:45;97977.59;;;30.31;36.19
20350;BME280;10332;50.208;18.988;2023-06-26T11:29:13;97983.22;;;30.29;36.02
20350;BME280;10332;50.208;18.988;2023-06-26T11:31:42;97974.75;;;30.26;35.81
20350;BME280;10332;50.208;18.988;2023-06-26T11:34:12;97977.00;;;30.40;36.10
20350;BME280;10332;50.208;18.988;2023-06-26T11:36:42;97976.88;;;30.70;35.66
20350;BME280;10332;50.208;18.988;2023-06-26T11:39:13;97974.31;;;30.75;35.33
20350;BME280;10332;50.208;18.988;2023-06-26T11:41:40;97972.88;;;30.61;34.84
20350;BME280;10332;50.208;18.988;2023-06-26T11:44:10;97971.81;;;30.50;34.92
20350;BME280;10332;50.208;18.988;2023-06-26T11:46:38;97962.56;;;30.35;35.93
20350;BME280;10332;50.208;18.988;2023-06-26T11:49:08;97969.47;;;30.42;36.34
20350;BME280;10332;50.208;18.988;2023-06-26T11:51:36;97976.28;;;30.45;36.15
20350;BME280;10332;50.208;18.988;2023-06-26T11:54:04;97974.88;;;30.31;35.38
20350;BME280;10332;50.208;18.988;2023-06-26T11:56:32;97966.56;;;30.44;36.20
20350;BME280;10332;50.208;18.988;2023-06-26T11:59:11;97964.44;;;30.46;35.40
20350;BME280;10332;50.208;18.988;2023-06-26T12:01:42;97965.75;;;30.32;34.50
20350;BME280;10332;50.208;18.988;2023-06-26T12:04:17;97956.13;;;30.24;35.12
20350;BME280;10332;50.208;18.988;2023-06-26T12:06:50;97939.97;;;30.36;36.12
20350;BME280;10332;50.208;18.988;2023-06-26T12:09:20;97939.72;;;30.49;36.04
20350;BME280;10332;50.208;18.988;2023-06-26T12:11:52;97938.31;;;30.58;36.55
20350;BME280;10332;50.208;18.988;2023-06-26T12:14:22;97938.06;;;30.71;35.10
20350;BME280;10332;50.208;18.988;2023-06-26T12:16:50;97943.91;;;30.80;35.19
20350;BME280;10332;50.208;18.988;2023-06-26T12:19:17;97930.78;;;30.72;34.50
20350;BME280;10332;50.208;18.988;2023-06-26T12:21:51;97936.41;;;30.82;35.75
20350;BME280;10332;50.208;18.988;2023-06-26T12:24:21;97926.19;;;30.96;36.45
20350;BME280;10332;50.208;18.988;2023-06-26T12:26:54;97932.22;;;30.51;34.73
20350;BME280;10332;50.208;18.988;2023-06-26T12:29:34;97930.13;;;30.41;34.30
20350;BME280;10332;50.208;18.988;2023-06-26T12:32:01;97923.88;;;30.64;35.32
20350;BME280;10332;50.208;18.988;2023-06-26T12:34:36;97927.41;;;30.76;35.27
20350;BME280;10332;50.208;18.988;2023-06-26T12:37:09;97929.44;;;30.98;35.84
20350;BME280;10332;50.208;18.988;2023-06-26T12:39:57;97928.13;;;31.12;35.02
20350;BME280;10332;50.208;18.988;2023-06-26T12:42:27;97931.47;;;31.31;34.71
20350;BME280;10332;50.208;18.988;2023-06-26T12:44:55;97936.81;;;31.43;34.89
20350;BME280;10332;50.208;18.988;2023-06-26T12:47:29;97939.78;;;31.58;35.05
20350;BME280;10332;50.208;18.988;2023-06-26T12:49:58;97923.13;;;31.78;36.01
20350;BME280;10332;50.208;18.988;2023-06-26T12:52:26;97935.78;;;31.60;33.58
20350;BME280;10332;50.208;18.988;2023-06-26T12:54:55;97921.09;;;31.40;33.77
20350;BME280;10332;50.208;18.988;2023-06-26T12:57:24;97915.34;;;31.07;33.54
20350;BME280;10332;50.208;18.988;2023-06-26T12:59:52;97929.66;;;30.56;33.59
20350;BME280;10332;50.208;18.988;2023-06-26T13:02:19;97925.34;;;30.95;33.37
20350;BME280;10332;50.208;18.988;2023-06-26T13:04:47;97921.91;;;31.12;33.37
20350;BME280;10332;50.208;18.988;2023-06-26T13:07:15;97924.28;;;31.37;34.41
20350;BME280;10332;50.208;18.988;2023-06-26T13:09:43;97915.47;;;31.58;35.18
20350;BME280;10332;50.208;18.988;2023-06-26T13:12:12;97909.97;;;31.81;35.28
20350;BME280;10332;50.208;18.988;2023-06-26T13:14:40;97920.19;;;31.96;34.45
20350;BME280;10332;50.208;18.988;2023-06-26T13:17:07;97909.53;;;31.89;34.09
20350;BME280;10332;50.208;18.988;2023-06-26T13:19:36;97918.41;;;32.02;33.74